Time;durP1;ratioP1;P1;durP2;ratioP2;P2;SDS_P1;SDS_P2;PMS_P1;PMS_P2;Temp;Humidity;BMP_temperature;BMP_pressure;BME280_temperature;BME280_humidity;BME280_pressure;Samples;Min_cycle;Max_cycle;Signal;HPM_P1;HPM_P2
2022/08/15 00:02:29;;;;;;;5.83;3.17;;;;;;;20.95;68.25;98624.38;4917145;29;20542;-89
2022/08/15 00:05:10;;;;;;;2.60;2.00;;;;;;;20.86;68.63;98618.34;4917897;29;20520;-90
2022/08/15 00:07:38;;;;;;;2.60;2.30;;;;;;;20.90;68.92;98621.44;4924233;29;20490;-90
2022/08/15 00:10:17;;;;;;;2.97;1.93;;;;;;;20.97;68.67;98619.69;4999648;28;20770;-90
2022/08/15 00:12:51;;;;;;;2.80;2.27;;;;;;;20.97;68.95;98609.84;4985811;28;20471;-90
2022/08/15 00:15:27;;;;;;;4.13;2.23;;;;;;;20.94;69.08;98602.22;5003856;28;20513;-90
2022/08/15 00:18:10;;;;;;;3.67;2.50;;;;;;;20.97;69.11;98593.81;5001541;28;20485;-90
2022/08/15 00:20:45;;;;;;;6.33;2.80;;;;;;;21.00;69.04;98596.09;5004122;28;21086;-89
2022/08/15 00:23:17;;;;;;;3.57;2.70;;;;;;;21.04;69.35;98585.06;4986325;28;20490;-90
2022/08/15 00:25:50;;;;;;;6.83;2.27;;;;;;;21.04;69.47;98590.41;4984701;28;20461;-92
2022/08/15 00:28:31;;;;;;;;;;;;;;;;;;;;;
2022/08/15 00:30:57;;;;;;;4.87;2.47;;;;;;;21.04;69.57;98595.75;4965917;28;20556;-90
2022/08/15 00:33:30;;;;;;;4.80;2.57;;;;;;;21.05;69.76;98598.22;4983814;28;20442;-90
2022/08/15 00:36:05;;;;;;;3.17;2.87;;;;;;;21.09;69.53;98593.31;4982878;28;20595;-89
2022/08/15 00:38:33;;;;;;;6.53;2.50;;;;;;;21.14;69.26;98597.09;4984301;28;20551;-89
2022/08/15 00:44:57;;;;;;;;;;;;;;;;;;;;;
2022/08/15 00:50:41;;;;;;;5.90;3.07;;;;;;;21.00;70.52;98646.00;4978382;23;20931;-79
2022/08/15 00:53:10;;;;;;;2.83;2.20;;;;;;;20.88;70.99;98648.34;4942699;29;20459;-78
2022/08/15 00:55:39;;;;;;;4.20;3.40;;;;;;;20.83;71.25;98648.09;4932889;28;20680;-79
2022/08/15 00:58:05;;;;;;;3.20;2.90;;;;;;;20.83;71.41;98642.75;4953409;28;20517;-79
2022/08/15 01:00:42;;;;;;;4.80;3.03;;;;;;;20.88;71.15;98636.84;4941209;29;20501;-79
2022/08/15 01:03:16;;;;;;;3.40;2.60;;;;;;;20.91;71.09;98639.16;4938934;29;20211;-78
2022/08/15 01:05:46;;;;;;;3.13;2.37;;;;;;;20.91;70.84;98644.47;4936540;29;20467;-78
2022/08/15 01:08:14;;;;;;;4.10;3.00;;;;;;;20.89;70.90;98635.81;4954307;28;20469;-78
2022/08/15 01:10:40;;;;;;;3.83;2.87;;;;;;;20.88;70.84;98636.84;4931470;29;20518;-78
2022/08/15 01:13:06;;;;;;;5.27;3.17;;;;;;;20.89;71.01;98636.66;4939720;29;20466;-79
2022/08/15 01:15:32;;;;;;;4.30;3.10;;;;;;;20.91;70.64;98639.97;4896553;29;20507;-77
2022/08/15 01:17:58;;;;;;;3.33;3.03;;;;;;;20.91;70.88;98634.63;4935398;29;20243;-77
2022/08/15 01:20:28;;;;;;;4.80;2.17;;;;;;;20.91;70.39;98633.81;4938371;29;20233;-78
2022/08/15 01:23:12;;;;;;;3.27;2.20;;;;;;;20.89;70.05;98641.16;4941370;29;20491;-77
2022/08/15 01:25:54;;;;;;;2.93;2.13;;;;;;;20.84;70.04;98649.72;4917376;29;21021;-77
2022/08/15 01:28:26;;;;;;;4.33;1.93;;;;;;;20.80;69.81;98645.78;4933659;29;20489;-78
2022/08/15 01:31:00;;;;;;;3.37;2.27;;;;;;;20.73;69.36;98647.53;4951380;28;20490;-77
2022/08/15 01:33:27;;;;;;;2.53;1.83;;;;;;;20.69;69.16;98648.94;4954247;28;20465;-78
2022/08/15 01:35:54;;;;;;;5.57;2.10;;;;;;;20.68;69.19;98641.94;4933496;29;20465;-77
2022/08/15 01:38:31;;;;;;;3.10;1.93;;;;;;;20.68;68.91;98644.59;4933292;29;20488;-78
2022/08/15 01:41:07;;;;;;;2.73;2.10;;;;;;;20.69;68.92;98638.28;4950234;28;20496;-77
2022/08/15 01:43:40;;;;;;;3.03;1.77;;;;;;;20.71;68.74;98634.41;4952984;28;20771;-77
2022/08/15 01:46:08;;;;;;;5.83;2.10;;;;;;;20.70;68.57;98631.91;4934804;29;20469;-78
2022/08/15 01:48:59;;;;;;;3.27;1.30;;;;;;;20.65;68.31;98635.13;4949840;28;20527;-78
2022/08/15 01:51:25;;;;;;;1.97;1.83;;;;;;;20.60;68.30;98636.69;4953213;28;20579;-78
2022/08/15 01:53:59;;;;;;;5.70;1.63;;;;;;;20.56;68.31;98622.91;4942271;29;20558;-78
2022/08/15 01:56:32;;;;;;;2.47;2.03;;;;;;;20.49;68.51;98628.13;4941290;29;20208;-78
2022/08/15 01:59:01;;;;;;;2.57;1.80;;;;;;;20.46;68.07;98631.16;4947136;29;20478;-78
2022/08/15 02:01:58;;;;;;;2.07;1.87;;;;;;;20.44;68.20;98624.34;4942625;29;20491;-78
2022/08/15 02:04:31;;;;;;;2.00;1.60;;;;;;;20.41;68.10;98625.53;4936622;29;20658;-78
2022/08/15 02:06:59;;;;;;;2.53;2.30;;;;;;;20.40;68.09;98626.56;4941175;29;20484;-77
2022/08/15 02:09:28;;;;;;;3.33;1.93;;;;;;;20.38;68.09;98625.09;4956255;28;20520;-77
2022/08/15 02:11:55;;;;;;;2.33;2.03;;;;;;;20.37;68.17;98620.78;4937711;29;20817;-77
2022/08/15 02:14:21;;;;;;;3.70;2.37;;;;;;;20.37;68.30;98620.78;4939334;29;20477;-78
2022/08/15 02:16:47;;;;;;;2.33;2.13;;;;;;;20.32;68.67;98613.31;4940388;29;20460;-77
2022/08/15 02:19:15;;;;;;;2.67;2.13;;;;;;;20.32;68.57;98616.00;4942530;29;20698;-77
2022/08/15 02:21:46;;;;;;;3.30;2.13;;;;;;;20.34;68.51;98612.13;4944159;28;20497;-77
2022/08/15 02:24:17;;;;;;;2.70;2.13;;;;;;;20.39;68.26;98608.91;4944720;29;20512;-77
2022/08/15 02:26:42;;;;;;;2.10;1.90;;;;;;;20.44;68.12;98611.88;4937730;29;21372;-78
2022/08/15 02:29:08;;;;;;;2.20;2.00;;;;;;;20.48;67.91;98606.97;4954593;28;20528;-78
2022/08/15 02:31:36;;;;;;;2.47;2.17;;;;;;;20.51;67.83;98618.09;4941874;29;20217;-78
2022/08/15 02:34:05;;;;;;;2.50;1.90;;;;;;;20.56;67.74;98617.56;4935583;29;20528;-77
2022/08/15 02:36:32;;;;;;;3.40;2.10;;;;;;;20.59;67.77;98617.19;4941426;29;20465;-77
2022/08/15 02:39:07;;;;;;;3.07;2.43;;;;;;;20.60;67.73;98615.34;4952873;28;20496;-77
2022/08/15 02:41:37;;;;;;;8.80;3.73;;;;;;;20.58;68.02;98618.22;4936578;29;20500;-77
2022/08/15 02:44:03;;;;;;;3.60;2.20;;;;;;;20.55;68.07;98608.75;4938235;29;20481;-77
2022/08/15 02:46:29;;;;;;;2.90;1.93;;;;;;;20.52;67.95;98613.56;4938966;29;20652;-77
2022/08/15 02:49:01;;;;;;;3.07;2.37;;;;;;;20.47;68.18;98614.16;4936502;29;21015;-77
2022/08/15 02:51:34;;;;;;;2.20;1.60;;;;;;;20.36;68.25;98614.63;4940880;29;20865;-77
2022/08/15 02:53:59;;;;;;;3.20;2.03;;;;;;;20.23;68.36;98623.25;4953895;28;20476;-77
2022/08/15 02:56:27;;;;;;;3.00;2.40;;;;;;;20.10;68.81;98621.22;4941585;29;20209;-77
2022/08/15 02:58:54;;;;;;;3.73;2.23;;;;;;;19.97;69.08;98631.69;4936960;29;20206;-77
2022/08/15 03:01:21;;;;;;;2.20;2.00;;;;;;;19.84;69.32;98629.63;4939197;29;20851;-77
2022/08/15 03:03:51;;;;;;;3.53;2.40;;;;;;;19.77;69.36;98638.56;4935427;28;20502;-77
2022/08/15 03:06:21;;;;;;;3.07;2.30;;;;;;;19.74;69.62;98641.56;4938535;29;20785;-77
2022/08/15 03:08:46;;;;;;;3.17;2.73;;;;;;;19.74;69.53;98641.56;4952132;28;20465;-77
2022/08/15 03:11:13;;;;;;;2.50;2.27;;;;;;;19.78;69.42;98648.19;4945743;29;21017;-77
2022/08/15 03:13:40;;;;;;;4.00;2.60;;;;;;;19.83;69.47;98648.50;4938159;29;20197;-77
2022/08/15 03:16:09;;;;;;;3.40;2.33;;;;;;;19.87;69.36;98647.09;4935101;29;20448;-77
2022/08/15 03:18:38;;;;;;;4.10;2.43;;;;;;;19.91;69.33;98653.75;4938477;29;20541;-77
2022/08/15 03:21:11;;;;;;;2.33;2.13;;;;;;;19.92;69.37;98666.06;4957287;28;20498;-77
2022/08/15 03:23:38;;;;;;;4.10;3.67;;;;;;;19.90;69.41;98662.72;4959500;28;20911;-77
2022/08/15 03:26:04;;;;;;;3.80;3.47;;;;;;;19.91;69.33;98671.59;4937480;29;20450;-78
2022/08/15 03:28:32;;;;;;;4.87;2.70;;;;;;;19.94;69.41;98669.38;4933685;29;20499;-77
2022/08/15 03:31:05;;;;;;;3.70;2.57;;;;;;;20.01;68.98;98665.00;4937574;29;20194;-77
2022/08/15 03:33:32;;;;;;;3.40;2.80;;;;;;;20.08;68.99;98673.91;4939588;29;20802;-77
2022/08/15 03:35:58;;;;;;;3.60;3.30;;;;;;;20.13;68.96;98667.22;4938195;29;20465;-77
2022/08/15 03:38:25;;;;;;;3.80;3.40;;;;;;;20.12;68.92;98653.06;4934569;29;20845;-77
2022/08/15 03:40:51;;;;;;;3.33;2.77;;;;;;;20.08;68.71;98655.22;4935377;29;20453;-77
2022/08/15 03:43:27;;;;;;;4.20;2.87;;;;;;;20.04;68.71;98655.81;4939256;29;20894;-77
2022/08/15 03:45:58;;;;;;;2.63;2.20;;;;;;;20.05;68.82;98655.59;4940789;29;20893;-77
2022/08/15 03:48:42;;;;;;;2.73;2.30;;;;;;;20.06;68.72;98651.94;4938713;29;21060;-77
2022/08/15 03:51:09;;;;;;;4.00;2.13;;;;;;;20.04;68.48;98651.28;4933920;29;20493;-77
2022/08/15 03:53:43;;;;;;;4.83;2.40;;;;;;;20.05;68.22;98650.28;4934960;29;20834;-77
2022/08/15 03:56:14;;;;;;;2.40;2.20;;;;;;;20.04;68.32;98647.81;4953108;28;20990;-77
2022/08/15 03:58:40;;;;;;;2.50;2.10;;;;;;;20.01;68.57;98641.00;4943322;29;20487;-76
2022/08/15 04:01:13;;;;;;;4.80;2.80;;;;;;;20.04;68.25;98639.81;4936772;29;20458;-77
2022/08/15 04:03:39;;;;;;;3.23;2.97;;;;;;;20.05;68.35;98636.94;4939971;29;20467;-77
2022/08/15 04:06:09;;;;;;;2.77;2.57;;;;;;;20.06;68.18;98635.94;4940452;29;20467;-77
2022/08/15 04:08:35;;;;;;;3.40;3.10;;;;;;;20.09;68.06;98638.25;4943174;29;20488;-77
2022/08/15 04:11:03;;;;;;;3.17;2.87;;;;;;;20.11;68.13;98636.19;4936237;29;20440;-77
2022/08/15 04:13:30;;;;;;;3.37;3.07;;;;;;;20.16;68.03;98630.34;4936723;29;20804;-77
2022/08/15 04:15:59;;;;;;;2.70;2.50;;;;;;;20.17;67.85;98637.34;4933488;29;20459;-77
2022/08/15 04:18:25;;;;;;;3.10;2.70;;;;;;;20.19;67.92;98634.47;4937827;29;20492;-77
2022/08/15 04:20:54;;;;;;;3.93;2.97;;;;;;;20.19;67.96;98637.97;4937485;29;20523;-77
2022/08/15 04:23:20;;;;;;;3.63;2.47;;;;;;;20.18;67.69;98646.16;4939822;29;20938;-77
2022/08/15 04:25:45;;;;;;;3.13;2.83;;;;;;;20.17;67.26;98642.66;4939195;29;21027;-77
2022/08/15 04:28:14;;;;;;;3.00;2.67;;;;;;;20.16;67.41;98643.66;4936448;29;20642;-77
2022/08/15 04:30:44;;;;;;;3.40;2.87;;;;;;;20.14;67.51;98629.69;4952455;28;20486;-78
2022/08/15 04:33:15;;;;;;;2.83;2.40;;;;;;;20.15;67.18;98626.03;4935492;29;20922;-77
2022/08/15 04:35:47;;;;;;;3.30;2.83;;;;;;;20.15;66.97;98619.88;4938171;29;20473;-77
2022/08/15 04:38:45;;;;;;;3.50;2.75;;;;;;;20.17;67.14;98620.50;4938737;29;20491;-77
2022/08/15 04:41:12;;;;;;;2.57;2.13;;;;;;;20.18;67.15;98623.00;4932211;29;20218;-77
2022/08/15 04:43:41;;;;;;;2.50;2.30;;;;;;;20.20;67.06;98620.13;4934819;29;20470;-77
2022/08/15 04:46:11;;;;;;;3.03;2.07;;;;;;;20.23;66.93;98615.25;4935008;29;20457;-77
2022/08/15 04:48:39;;;;;;;2.37;2.17;;;;;;;20.26;66.83;98614.06;4932476;29;21078;-78
2022/08/15 04:51:06;;;;;;;3.20;2.87;;;;;;;20.28;66.82;98609.34;4918300;29;20499;-77
2022/08/15 04:53:34;;;;;;;3.37;2.83;;;;;;;20.31;66.81;98611.69;4947945;28;20479;-78
2022/08/15 04:56:06;;;;;;;3.30;3.00;;;;;;;20.32;66.60;98614.16;4930635;29;20965;-77
2022/08/15 04:58:34;;;;;;;5.60;2.13;;;;;;;20.32;66.52;98614.16;4949074;28;20572;-77
2022/08/15 05:01:03;;;;;;;2.20;2.00;;;;;;;20.35;66.41;98615.63;4933137;29;20540;-78
2022/08/15 05:03:37;;;;;;;3.93;2.60;;;;;;;20.39;66.40;98624.06;4930232;29;20488;-78
2022/08/15 05:06:06;;;;;;;2.10;1.90;;;;;;;20.45;66.18;98632.19;4931949;29;21153;-77
2022/08/15 05:08:33;;;;;;;2.40;2.10;;;;;;;20.62;65.87;98629.34;4930896;29;21025;-77
2022/08/15 05:11:14;;;;;;;2.60;2.17;;;;;;;20.86;65.06;98625.53;4929412;29;21849;-77
2022/08/15 05:13:42;;;;;;;4.50;2.07;;;;;;;21.15;64.21;98625.44;4928567;29;20484;-77
2022/08/15 05:16:12;;;;;;;2.77;2.30;;;;;;;21.57;63.27;98621.13;4931765;29;20887;-77
2022/08/15 05:18:42;;;;;;;2.63;1.77;;;;;;;22.10;61.74;98613.53;4947547;28;20739;-77
2022/08/15 05:21:27;;;;;;;2.93;2.17;;;;;;;22.59;60.29;98613.59;4932370;29;20800;-77
2022/08/15 05:23:55;;;;;;;3.20;2.10;;;;;;;22.76;59.39;98617.59;4931057;29;20843;-77
2022/08/15 05:26:27;;;;;;;3.50;2.20;;;;;;;22.65;59.60;98607.44;4947845;28;20845;-77
2022/08/15 05:28:56;;;;;;;3.10;2.43;;;;;;;22.51;59.72;98609.25;4929122;29;21005;-78
2022/08/15 05:31:22;;;;;;;3.80;2.10;;;;;;;22.29;60.29;98605.84;4920425;29;20228;-77
2022/08/15 05:33:52;;;;;;;3.38;2.85;;;;;;;22.11;60.61;98603.66;4946819;28;20850;-77
2022/08/15 05:36:20;;;;;;;4.63;2.80;;;;;;;21.95;61.14;98602.09;4928790;29;20290;-78
2022/08/15 05:38:58;;;;;;;1.77;1.67;;;;;;;21.87;61.49;98591.56;4931171;29;20486;-77
2022/08/15 05:41:32;;;;;;;3.00;2.53;;;;;;;21.85;61.76;98596.28;4927451;29;20623;-77
2022/08/15 05:44:01;;;;;;;4.30;2.50;;;;;;;22.03;61.40;98595.78;4930090;29;20557;-77
2022/08/15 05:46:54;;;;;;;3.83;2.67;;;;;;;22.09;60.84;98592.34;4912143;29;20665;-77
2022/08/15 05:49:39;;;;;;;2.57;2.37;;;;;;;22.03;60.88;98596.59;4936175;28;20480;-77
2022/08/15 05:52:42;;;;;;;3.60;2.10;;;;;;;21.94;61.00;98597.78;4915881;29;20493;-76
2022/08/15 05:55:14;;;;;;;2.20;2.00;;;;;;;22.27;60.49;98605.22;4945566;28;20463;-76
2022/08/15 05:57:58;;;;;;;3.17;2.27;;;;;;;22.64;58.95;98601.28;4927050;29;20487;-76
2022/08/15 06:00:37;;;;;;;1.90;1.80;;;;;;;23.10;57.55;98595.25;4946806;28;20973;-77
2022/08/15 06:03:21;;;;;;;3.85;2.30;;;;;;;23.73;56.04;98591.41;4924737;29;20496;-77
2022/08/15 06:05:56;;;;;;;2.70;1.97;;;;;;;24.32;54.55;98589.66;4931299;29;20231;-77
2022/08/15 06:08:36;;;;;;;2.20;2.00;;;;;;;24.91;52.82;98584.06;4932504;29;20507;-79
2022/08/15 06:11:23;;;;;;;3.60;1.87;;;;;;;25.28;51.07;98578.09;4935728;29;20454;-79
2022/08/15 06:14:12;;;;;;;2.27;2.07;;;;;;;25.72;50.16;98579.81;4935822;29;20530;-80
2022/08/15 06:16:48;;;;;;;1.90;1.70;;;;;;;26.27;48.97;98585.31;4929210;29;20587;-78
2022/08/15 06:19:34;;;;;;;2.57;2.27;;;;;;;26.73;47.55;98585.78;4931256;29;20478;-78
2022/08/15 06:22:08;;;;;;;2.13;1.60;;;;;;;27.25;46.45;98594.25;4944271;28;20769;-78
2022/08/15 06:25:12;;;;;;;2.87;1.80;;;;;;;27.63;45.10;98597.59;4949407;28;20671;-78
2022/08/15 06:27:46;;;;;;;3.00;1.80;;;;;;;27.92;44.24;98595.84;4929262;29;20502;-77
2022/08/15 06:30:28;;;;;;;2.03;1.93;;;;;;;28.24;43.68;98589.03;4933771;29;20557;-80
2022/08/15 06:33:20;;;;;;;2.57;1.90;;;;;;;28.47;42.94;98594.69;4940747;28;21057;-77
2022/08/15 06:35:59;;;;;;;2.63;1.90;;;;;;;28.52;42.53;98594.78;4944760;28;20462;-78
2022/08/15 06:38:40;;;;;;;2.50;2.20;;;;;;;28.61;42.04;98596.84;4935991;29;20480;-77
2022/08/15 06:41:26;;;;;;;2.00;1.80;;;;;;;28.61;42.26;98598.75;4931031;29;20462;-79
2022/08/15 06:43:57;;;;;;;2.10;1.60;;;;;;;28.58;42.28;98594.63;4933143;29;20459;-78
2022/08/15 06:46:38;;;;;;;3.87;2.00;;;;;;;28.79;41.80;98595.88;4932363;29;20474;-80
2022/08/15 06:49:09;;;;;;;5.17;2.07;;;;;;;28.87;41.38;98587.38;4940324;29;21037;-80
2022/08/15 06:51:42;;;;;;;3.70;2.30;;;;;;;28.79;41.57;98595.06;4931929;29;20485;-78
2022/08/15 06:54:14;;;;;;;1.97;1.47;;;;;;;28.76;40.83;98590.94;4947163;28;20466;-80
2022/08/15 06:57:00;;;;;;;2.60;2.40;;;;;;;28.59;40.96;98590.03;4928559;29;20458;-80
2022/08/15 06:59:57;;;;;;;5.43;1.73;;;;;;;28.68;41.24;98586.75;4935400;29;20463;-79
2022/08/15 07:02:52;;;;;;;2.93;1.80;;;;;;;28.85;40.48;98589.50;4922418;29;20463;-78
2022/08/15 07:05:55;;;;;;;1.60;1.50;;;;;;;29.00;40.67;98582.72;4950099;28;20463;-78
2022/08/15 07:08:30;;;;;;;2.60;1.93;;;;;;;29.11;40.11;98580.00;4874750;29;20511;-78
2022/08/15 07:11:07;;;;;;;2.63;2.10;;;;;;;29.10;40.16;98570.22;4923701;28;20492;-79
2022/08/15 07:14:12;;;;;;;2.65;1.98;;;;;;;29.15;39.90;98571.41;4934577;29;20372;-79
2022/08/15 07:16:54;;;;;;;2.30;1.70;;;;;;;29.10;39.55;98577.53;4929506;29;20219;-79
2022/08/15 07:19:20;;;;;;;3.13;2.17;;;;;;;29.05;39.41;98572.03;4939141;29;20474;-76
2022/08/15 07:22:00;;;;;;;1.70;1.53;;;;;;;29.12;38.95;98570.00;4930863;29;20606;-76
2022/08/15 07:24:31;;;;;;;2.10;1.90;;;;;;;29.08;38.94;98575.09;4946573;28;20498;-77
2022/08/15 07:26:57;;;;;;;1.90;1.70;;;;;;;29.09;38.70;98575.91;4929471;29;20497;-78
2022/08/15 07:29:30;;;;;;;2.93;1.80;;;;;;;29.02;38.42;98570.59;4945532;28;20491;-77
2022/08/15 07:32:11;;;;;;;1.63;1.53;;;;;;;29.10;38.65;98575.66;4930082;29;21022;-78
2022/08/15 07:34:57;;;;;;;3.00;1.90;;;;;;;29.55;37.94;98566.66;4931470;29;20582;-78
2022/08/15 07:37:24;;;;;;;1.60;1.50;;;;;;;29.64;37.64;98560.88;4947993;28;20345;-76
2022/08/15 07:40:06;;;;;;;3.37;1.90;;;;;;;29.78;36.80;98562.16;4948336;28;20469;-77
2022/08/15 07:42:40;;;;;;;1.60;1.50;;;;;;;29.86;36.82;98564.44;4933631;29;20509;-79
2022/08/15 07:45:20;;;;;;;2.00;1.80;;;;;;;29.82;36.34;98562.50;4950393;28;20795;-79
2022/08/15 07:48:04;;;;;;;2.00;1.40;;;;;;;29.91;36.11;98558.28;4935568;29;20478;-79
2022/08/15 07:50:34;;;;;;;1.37;1.20;;;;;;;30.06;35.28;98557.72;4934694;29;20493;-79
2022/08/15 07:53:21;;;;;;;3.33;1.47;;;;;;;30.04;35.32;98560.66;4943775;28;21031;-79
2022/08/15 07:56:13;;;;;;;3.43;2.03;;;;;;;30.20;34.64;98557.06;4928028;29;20459;-78
2022/08/15 07:58:42;;;;;;;1.83;1.63;;;;;;;30.23;34.40;98561.19;4946436;28;21094;-78
2022/08/15 08:01:22;;;;;;;2.57;1.33;;;;;;;30.02;34.79;98557.38;4926975;29;20464;-78
2022/08/15 08:03:57;;;;;;;2.63;1.27;;;;;;;30.12;34.42;98562.13;4947635;28;20462;-78
2022/08/15 08:06:31;;;;;;;1.60;1.20;;;;;;;30.32;33.71;98558.88;4928541;29;20546;-77
2022/08/15 08:09:17;;;;;;;1.50;1.37;;;;;;;30.55;33.39;98561.34;4945302;28;20572;-78
2022/08/15 08:11:54;;;;;;;1.30;1.20;;;;;;;30.75;32.82;98562.63;4932271;29;20489;-78
2022/08/15 08:14:29;;;;;;;1.63;1.47;;;;;;;30.65;33.56;98566.06;4950001;28;20562;-78
2022/08/15 08:17:18;;;;;;;1.60;1.50;;;;;;;30.39;33.83;98562.22;4923444;29;20473;-78
2022/08/15 08:19:53;;;;;;;1.87;1.50;;;;;;;30.52;33.17;98556.41;4937060;29;20500;-78
2022/08/15 08:22:55;;;;;;;1.70;1.60;;;;;;;30.65;33.69;98558.75;4931523;29;20596;-78
2022/08/15 08:25:27;;;;;;;2.77;1.60;;;;;;;30.82;33.50;98558.69;4931573;28;21009;-78
2022/08/15 08:27:56;;;;;;;1.60;1.50;;;;;;;30.71;33.25;98566.94;4945930;28;20520;-77
2022/08/15 08:30:32;;;;;;;1.70;1.40;;;;;;;30.73;33.12;98554.75;4936037;29;21042;-79
2022/08/15 08:33:22;;;;;;;1.93;1.70;;;;;;;30.69;33.30;98560.94;4932631;29;20473;-77
2022/08/15 08:36:02;;;;;;;2.30;1.93;;;;;;;30.63;33.28;98546.50;4928287;29;20471;-78
2022/08/15 08:38:41;;;;;;;2.23;2.03;;;;;;;30.58;33.66;98543.75;4932403;29;20486;-77
2022/08/15 08:41:44;;;;;;;2.90;1.80;;;;;;;30.28;34.09;98536.88;4929760;29;20989;-78
2022/08/15 08:44:23;;;;;;;3.00;1.93;;;;;;;30.19;34.87;98536.50;4929153;29;20521;-77
2022/08/15 08:47:11;;;;;;;2.90;1.63;;;;;;;30.23;35.06;98542.25;4928204;29;20469;-79
2022/08/15 08:50:02;;;;;;;2.37;2.23;;;;;;;30.33;35.08;98536.16;4931749;29;20994;-77
2022/08/15 08:52:39;;;;;;;5.63;2.67;;;;;;;30.39;34.32;98540.53;4938498;29;20474;-78
2022/08/15 08:55:29;;;;;;;2.57;2.10;;;;;;;30.29;34.92;98535.00;4933924;29;20462;-79
2022/08/15 08:58:03;;;;;;;2.20;1.97;;;;;;;30.22;34.80;98532.47;4927674;29;21073;-77
2022/08/15 09:00:40;;;;;;;3.53;2.10;;;;;;;30.14;35.08;98531.00;4932992;28;20462;-77
2022/08/15 09:03:20;;;;;;;2.40;2.20;;;;;;;30.15;34.88;98532.63;4933135;29;21017;-79
2022/08/15 09:05:58;;;;;;;2.20;2.00;;;;;;;30.19;34.89;98532.94;4925872;29;20458;-79
2022/08/15 09:08:44;;;;;;;2.37;2.20;;;;;;;30.17;35.36;98532.38;4932413;29;20486;-78
2022/08/15 09:11:18;;;;;;;3.70;2.40;;;;;;;30.20;35.05;98527.28;4925702;29;20471;-77
2022/08/15 09:13:45;;;;;;;2.30;1.97;;;;;;;30.21;35.18;98523.50;4932028;29;21042;-77
2022/08/15 09:16:17;;;;;;;2.93;2.30;;;;;;;30.27;35.37;98531.72;4931636;29;20490;-78
2022/08/15 09:18:54;;;;;;;2.17;1.97;;;;;;;30.36;34.50;98531.03;4917277;29;20885;-77
2022/08/15 09:21:19;;;;;;;3.63;2.40;;;;;;;30.32;34.75;98524.47;4927930;29;20577;-78
2022/08/15 09:23:46;;;;;;;2.33;2.13;;;;;;;30.35;34.61;98525.84;4935599;29;20460;-77
2022/08/15 09:26:53;;;;;;;5.50;2.70;;;;;;;30.14;34.67;98517.47;4928536;29;20322;-77
2022/08/15 09:30:06;;;;;;;2.87;2.63;;;;;;;30.03;35.32;98520.28;4923076;29;20488;-78
2022/08/15 09:32:59;;;;;;;3.23;2.40;;;;;;;29.94;35.24;98520.69;4931046;29;20458;-77
2022/08/15 09:35:36;;;;;;;3.27;2.40;;;;;;;29.95;35.19;98524.25;4930105;29;20458;-78
2022/08/15 09:38:39;;;;;;;5.53;2.80;;;;;;;30.15;34.44;98519.09;4928807;29;20645;-77
2022/08/15 09:41:40;;;;;;;3.43;3.13;;;;;;;30.35;34.44;98521.28;4922368;29;20481;-78
2022/08/15 09:44:30;;;;;;;3.43;2.43;;;;;;;30.36;34.55;98527.50;4930800;29;20496;-77
2022/08/15 09:47:28;;;;;;;3.07;2.37;;;;;;;30.40;33.93;98520.50;4933337;29;20521;-77
2022/08/15 09:50:14;;;;;;;2.70;2.50;;;;;;;30.45;34.07;98528.69;4931253;29;20797;-77
2022/08/15 09:53:05;;;;;;;2.40;2.20;;;;;;;30.63;34.14;98520.22;4930050;29;21091;-77
2022/08/15 09:55:44;;;;;;;2.80;2.60;;;;;;;30.75;33.62;98516.53;4926893;29;20520;-78
2022/08/15 09:58:20;;;;;;;3.93;3.47;;;;;;;30.77;33.02;98509.78;4931305;29;20481;-77
2022/08/15 10:01:03;;;;;;;4.70;3.17;;;;;;;30.71;33.39;98508.09;4928731;29;20952;-77
2022/08/15 10:03:43;;;;;;;3.40;2.83;;;;;;;30.70;32.85;98508.34;4932722;29;20991;-77
2022/08/15 10:06:15;;;;;;;2.40;2.20;;;;;;;30.78;33.02;98505.19;4930747;29;20466;-77
2022/08/15 10:08:53;;;;;;;3.50;3.20;;;;;;;31.01;32.32;98506.78;4928819;29;20477;-77
2022/08/15 10:11:39;;;;;;;5.60;3.73;;;;;;;31.15;32.04;98497.16;4930206;29;20529;-77
2022/08/15 10:14:20;;;;;;;3.43;3.07;;;;;;;31.06;32.17;98496.00;4938359;29;20461;-77
2022/08/15 10:16:47;;;;;;;4.07;2.57;;;;;;;30.92;32.69;98489.34;4936418;29;20690;-77
2022/08/15 10:19:31;;;;;;;5.63;3.43;;;;;;;30.97;32.84;98487.50;4933930;29;20900;-77
2022/08/15 10:22:00;;;;;;;2.83;2.63;;;;;;;31.08;32.25;98478.38;4931908;29;21009;-77
2022/08/15 10:24:38;;;;;;;5.23;4.33;;;;;;;31.24;32.19;98481.19;4930893;29;20511;-77
2022/08/15 10:27:09;;;;;;;3.77;3.43;;;;;;;31.36;32.33;98479.13;4930443;29;20458;-77
2022/08/15 10:29:47;;;;;;;4.10;3.30;;;;;;;31.45;32.30;98474.88;4935023;29;20487;-77
2022/08/15 10:32:35;;;;;;;4.33;3.90;;;;;;;31.42;32.31;98467.25;4928465;29;20469;-77
2022/08/15 10:35:02;;;;;;;3.93;3.47;;;;;;;31.41;32.52;98471.06;4934251;29;20984;-77
2022/08/15 10:38:01;;;;;;;3.53;2.70;;;;;;;31.25;32.70;98455.72;4927236;29;20458;-77
2022/08/15 10:40:31;;;;;;;4.80;3.93;;;;;;;31.37;33.10;98453.66;4927219;29;20524;-77
2022/08/15 10:43:21;;;;;;;5.43;3.93;;;;;;;31.43;31.99;98452.63;4931242;29;20486;-78
2022/08/15 10:46:05;;;;;;;5.40;3.20;;;;;;;31.49;31.96;98450.75;4933539;29;20449;-77
2022/08/15 10:49:02;;;;;;;11.80;3.90;;;;;;;31.50;31.23;98445.06;4931427;29;20935;-78
2022/08/15 10:52:01;;;;;;;4.20;3.80;;;;;;;31.51;31.96;98445.88;4929341;29;20495;-77
2022/08/15 10:54:32;;;;;;;3.93;3.57;;;;;;;31.54;31.07;98434.47;4930313;29;20466;-77
2022/08/15 10:56:58;;;;;;;7.03;4.10;;;;;;;31.42;30.91;98420.31;4929137;29;20462;-77
2022/08/15 10:59:33;;;;;;;4.40;3.43;;;;;;;31.18;31.31;98417.97;4931399;29;20571;-78
2022/08/15 11:02:39;;;;;;;5.73;4.23;;;;;;;31.26;31.24;98419.38;4932267;29;20241;-78
2022/08/15 11:05:09;;;;;;;4.53;3.77;;;;;;;31.39;31.33;98418.13;4928572;29;20453;-77
2022/08/15 11:07:37;;;;;;;7.60;5.20;;;;;;;31.47;31.14;98421.16;4929967;29;20497;-85
2022/08/15 11:10:13;;;;;;;6.93;4.40;;;;;;;31.58;30.35;98421.22;4935346;29;20853;-78
2022/08/15 11:12:43;;;;;;;7.27;4.83;;;;;;;31.77;29.88;98419.69;4935380;29;20457;-76
2022/08/15 11:15:21;;;;;;;11.13;4.13;;;;;;;31.99;29.06;98419.53;4930580;29;20493;-78
2022/08/15 11:18:04;;;;;;;4.73;3.90;;;;;;;31.99;28.58;98416.00;4928668;29;20961;-76
2022/08/15 11:20:45;;;;;;;3.80;3.50;;;;;;;32.02;28.74;98420.88;4932620;29;20891;-78
2022/08/15 11:23:27;;;;;;;5.43;3.70;;;;;;;32.02;28.39;98418.16;4933429;28;20682;-77
2022/08/15 11:25:56;;;;;;;26.57;7.10;;;;;;;32.00;27.86;98415.75;4932130;29;20516;-77
2022/08/15 11:28:28;;;;;;;5.20;3.73;;;;;;;32.12;27.55;98410.88;4996888;23;20578;-79
2022/08/15 11:31:05;;;;;;;32.33;8.40;;;;;;;32.15;27.83;98404.09;4954126;28;20972;-85
2022/08/15 11:33:43;;;;;;;5.30;3.90;;;;;;;32.19;27.71;98405.19;4959400;28;20532;-82
2022/08/15 11:36:20;;;;;;;6.47;3.60;;;;;;;32.18;28.04;98407.06;4959285;28;20456;-85
2022/08/15 11:39:12;;;;;;;3.90;3.23;;;;;;;32.08;28.27;98414.38;4967230;28;20677;-86
2022/08/15 11:41:41;;;;;;;4.10;3.40;;;;;;;32.03;28.41;98420.63;4980314;28;21007;-81
2022/08/15 11:44:10;;;;;;;5.70;3.50;;;;;;;31.90;28.30;98423.81;4984820;28;20995;-83
2022/08/15 11:46:37;;;;;;;6.43;4.80;;;;;;;31.79;28.67;98424.84;4975420;28;20473;-81
2022/08/15 11:49:09;;;;;;;3.90;3.60;;;;;;;31.68;28.22;98426.72;4974510;28;21007;-84
2022/08/15 11:51:45;;;;;;;5.03;3.70;;;;;;;31.64;28.23;98425.59;4978247;28;20464;-83
2022/08/15 11:54:10;;;;;;;3.73;3.47;;;;;;;31.66;28.26;98426.97;4976702;28;20487;-82
2022/08/15 11:56:46;;;;;;;3.50;3.20;;;;;;;31.68;27.67;98427.53;4980624;28;20476;-82
2022/08/15 11:59:14;;;;;;;3.53;3.23;;;;;;;31.68;27.40;98429.41;4983445;28;20222;-82
2022/08/15 12:01:39;;;;;;;5.33;4.00;;;;;;;31.67;27.82;98435.91;4979901;28;20509;-86
2022/08/15 12:04:07;;;;;;;4.20;3.77;;;;;;;31.65;28.09;98443.50;4981517;28;20514;-83
2022/08/15 12:06:36;;;;;;;4.23;3.77;;;;;;;31.56;28.13;98453.22;4985927;28;20244;-81
2022/08/15 12:09:12;;;;;;;3.70;3.40;;;;;;;31.33;28.09;98493.22;4977923;28;20491;-83
2022/08/15 12:11:46;;;;;;;6.40;2.57;;;;;;;30.72;28.47;98498.91;4983235;28;20463;-81
2022/08/15 12:14:22;;;;;;;7.50;1.90;;;;;;;30.14;28.97;98522.06;4973120;28;21298;-82
2022/08/15 12:16:55;;;;;;;1.87;1.67;;;;;;;29.64;29.60;98539.22;4977742;28;20469;-84
2022/08/15 12:19:37;;;;;;;3.93;2.03;;;;;;;29.23;30.04;98574.53;4981203;28;20471;-85
2022/08/15 12:22:08;;;;;;;4.10;2.23;;;;;;;28.74;30.38;98598.47;4978687;28;20611;-83
2022/08/15 12:24:36;;;;;;;3.93;1.67;;;;;;;28.08;32.01;98618.63;4978349;28;20520;-82